Weatogue, Connecticut
Current Conditions -  °F | °C
As of 10:51 AM on Wednesday 28 Jan 2015 (Local Time) from KBDL Reporting Station
Broken Clouds Broken Clouds  
Wind Chill:   Ceiling: 14000
Heat Index: 20°   Visibility: 10mi
Dew Point:   Wind: 15mph
Humidity: 52%   Direction: 340°NNW
Pressure: 30"   Gusts: NA
Location:  41.84°N, 72.83°W
Report Text: KBDL 281551Z 34013KT 10SM FEW070 BKN140 M07/M15 A3000 RMK AO2 SLP161 T10671150
Loading
Personal Weather Stations






























Interactive Weather Map New forecast layout! Learn more

10-Day Weather Forecast

Advertisements
Track Severe Weather on mobile